createdAt,value
2022-10-28T00:01:15.668Z,14.00
2022-10-28T00:03:46.492Z,14.10
2022-10-28T00:06:19.282Z,14.00
2022-10-28T00:08:48.371Z,14.00
2022-10-28T00:11:18.837Z,14.00
2022-10-28T00:13:46.247Z,14.00
2022-10-28T00:16:16.581Z,13.90
2022-10-28T00:18:44.591Z,13.90
2022-10-28T00:21:14.665Z,13.90
2022-10-28T00:23:41.959Z,13.80
2022-10-28T00:26:14.791Z,13.80
2022-10-28T00:28:43.761Z,13.80
2022-10-28T00:31:13.029Z,13.80
2022-10-28T00:33:40.208Z,13.80
2022-10-28T00:36:14.035Z,13.70
2022-10-28T00:38:42.440Z,13.70
2022-10-28T00:41:10.811Z,13.70
2022-10-28T00:43:58.260Z,13.70
2022-10-28T00:46:37.159Z,13.70
2022-10-28T00:49:12.868Z,13.70
2022-10-28T00:51:40.217Z,13.60
2022-10-28T00:54:07.799Z,13.60
2022-10-28T00:56:40.334Z,13.60
2022-10-28T00:59:11.442Z,13.60
2022-10-28T01:01:38.589Z,13.50
2022-10-28T01:04:05.679Z,13.50
2022-10-28T01:06:35.374Z,13.50
2022-10-28T01:09:05.686Z,13.50
2022-10-28T01:11:43.204Z,13.50
2022-10-28T01:14:16.368Z,13.50
2022-10-28T01:16:49.555Z,13.40
2022-10-28T01:19:28.220Z,13.40
2022-10-28T01:22:23.894Z,13.40
2022-10-28T01:25:19.408Z,13.40
2022-10-28T01:28:02.707Z,13.40
2022-10-28T01:30:40.318Z,13.30
2022-10-28T01:33:19.842Z,13.30
2022-10-28T01:35:53.760Z,13.30
2022-10-28T01:39:01.771Z,13.30
2022-10-28T01:41:40.887Z,13.30
2022-10-28T01:44:23.757Z,13.30
2022-10-28T01:47:00.716Z,13.30
2022-10-28T01:49:45.406Z,13.20
2022-10-28T01:52:15.741Z,13.20
2022-10-28T01:54:53.020Z,13.20
2022-10-28T01:57:21.175Z,13.20
2022-10-28T01:59:49.614Z,13.20
2022-10-28T02:02:17.468Z,13.20
2022-10-28T02:04:44.479Z,13.20
2022-10-28T02:07:11.626Z,13.20
2022-10-28T02:10:13.536Z,13.20
2022-10-28T02:12:40.549Z,13.20
2022-10-28T02:15:33.508Z,13.10
2022-10-28T02:18:04.147Z,13.10
2022-10-28T02:20:50.260Z,13.00
2022-10-28T02:23:38.430Z,13.10
2022-10-28T02:26:14.455Z,13.10
2022-10-28T02:29:05.121Z,13.10
2022-10-28T02:31:35.434Z,13.10
2022-10-28T02:34:33.729Z,13.00
2022-10-28T02:37:06.615Z,13.10
2022-10-28T02:39:39.631Z,13.00
2022-10-28T02:42:24.447Z,13.00
2022-10-28T02:45:00.338Z,13.10
2022-10-28T02:47:33.624Z,13.00
2022-10-28T02:50:04.681Z,13.00
2022-10-28T02:52:34.234Z,13.00
2022-10-28T02:55:07.248Z,13.00
2022-10-28T02:57:43.425Z,13.00
2022-10-28T03:00:15.732Z,13.00
2022-10-28T03:02:42.804Z,13.00
2022-10-28T03:05:10.435Z,13.00
2022-10-28T03:07:37.413Z,12.90
2022-10-28T03:10:04.845Z,12.90
2022-10-28T03:12:31.824Z,12.90
2022-10-28T03:14:58.780Z,12.90
2022-10-28T03:17:25.765Z,12.90
2022-10-28T03:19:52.599Z,12.80
2022-10-28T03:22:19.553Z,12.90
2022-10-28T03:24:46.500Z,12.90
2022-10-28T03:27:13.474Z,12.90
2022-10-28T03:29:44.838Z,12.90
2022-10-28T03:32:13.187Z,12.90
2022-10-28T03:34:40.198Z,12.80
2022-10-28T03:37:07.225Z,12.80
2022-10-28T03:39:34.476Z,12.80
2022-10-28T03:42:01.601Z,12.80
2022-10-28T03:44:28.608Z,12.80
2022-10-28T03:46:55.670Z,12.80
2022-10-28T03:49:25.299Z,12.80
2022-10-28T03:51:52.235Z,12.80
2022-10-28T03:54:19.095Z,12.80
2022-10-28T03:56:46.052Z,12.70
2022-10-28T03:59:15.101Z,12.80
2022-10-28T04:01:44.731Z,12.70
2022-10-28T04:04:11.707Z,12.70
2022-10-28T04:06:38.674Z,12.70
2022-10-28T04:09:05.693Z,12.70
2022-10-28T04:11:35.381Z,12.70
2022-10-28T04:14:02.506Z,12.70
2022-10-28T04:16:29.399Z,12.70
2022-10-28T04:18:56.316Z,12.70
2022-10-28T04:21:23.234Z,12.70
2022-10-28T04:23:50.213Z,12.70
2022-10-28T04:26:17.229Z,12.70
2022-10-28T04:28:44.298Z,12.70
2022-10-28T04:31:12.311Z,12.70
2022-10-28T04:33:39.254Z,12.60
2022-10-28T04:36:06.635Z,12.60
2022-10-28T04:38:33.524Z,12.60
2022-10-28T04:41:00.446Z,12.50
2022-10-28T04:43:27.399Z,12.60
2022-10-28T04:45:54.576Z,12.60
2022-10-28T04:48:21.736Z,12.50
2022-10-28T04:50:48.700Z,12.50
2022-10-28T04:53:15.657Z,12.50
2022-10-28T04:55:42.892Z,12.50
2022-10-28T04:58:10.503Z,12.50
2022-10-28T05:00:37.530Z,12.50
2022-10-28T05:03:04.785Z,12.50
2022-10-28T05:05:32.030Z,12.50
2022-10-28T05:07:59.051Z,12.40
2022-10-28T05:10:28.675Z,12.40
2022-10-28T05:12:55.595Z,12.40
2022-10-28T05:15:26.561Z,12.40
2022-10-28T05:17:54.035Z,12.40
2022-10-28T05:20:23.525Z,12.40
2022-10-28T05:22:56.046Z,12.40
2022-10-28T05:25:23.991Z,12.40
2022-10-28T05:27:51.273Z,12.30
2022-10-28T05:30:19.098Z,12.30
2022-10-28T05:32:48.240Z,12.30
2022-10-28T05:35:17.383Z,12.30
2022-10-28T05:37:44.560Z,12.20
2022-10-28T05:40:12.277Z,12.20
2022-10-28T05:42:42.638Z,12.20
2022-10-28T05:45:10.838Z,12.20
2022-10-28T05:47:43.447Z,12.20
2022-10-28T05:50:10.509Z,12.20
2022-10-28T05:52:37.559Z,12.10
2022-10-28T05:55:04.973Z,12.10
2022-10-28T05:57:35.699Z,12.10
2022-10-28T06:00:04.666Z,12.10
2022-10-28T06:02:39.593Z,12.10
2022-10-28T06:05:06.918Z,12.10
2022-10-28T06:07:34.862Z,12.10
2022-10-28T06:10:02.969Z,12.10
2022-10-28T06:12:28.456Z,12.10
2022-10-28T06:14:55.524Z,12.00
2022-10-28T06:17:22.850Z,12.00
2022-10-28T06:19:49.820Z,12.00
2022-10-28T06:22:17.432Z,12.00
2022-10-28T06:24:44.429Z,12.00
2022-10-28T06:27:11.350Z,12.00
2022-10-28T06:29:38.213Z,12.00
2022-10-28T06:32:09.279Z,12.00
2022-10-28T06:34:37.732Z,11.90
2022-10-28T06:37:09.274Z,11.90
2022-10-28T06:39:38.427Z,11.90
2022-10-28T06:42:05.575Z,12.00
2022-10-28T06:44:32.630Z,12.00
2022-10-28T06:47:01.109Z,12.00
2022-10-28T06:49:29.132Z,12.00
2022-10-28T06:51:56.149Z,12.00
2022-10-28T06:54:23.961Z,12.00
2022-10-28T06:56:50.978Z,12.00
2022-10-28T06:59:17.938Z,12.10
2022-10-28T07:02:00.922Z,12.10
2022-10-28T07:04:28.022Z,12.10
2022-10-28T07:06:56.417Z,12.10
2022-10-28T07:09:23.699Z,12.20
2022-10-28T07:11:54.987Z,12.20
2022-10-28T07:14:22.960Z,12.20
2022-10-28T07:16:50.161Z,12.20
2022-10-28T07:19:20.276Z,12.30
2022-10-28T07:21:49.430Z,12.30
2022-10-28T07:24:16.486Z,12.40
2022-10-28T07:26:46.075Z,12.30
2022-10-28T07:29:13.024Z,12.40
2022-10-28T07:31:42.648Z,12.40
2022-10-28T07:34:09.682Z,12.50
2022-10-28T07:36:36.768Z,12.50
2022-10-28T07:39:04.134Z,12.50
2022-10-28T07:41:31.200Z,12.50
2022-10-28T07:43:58.383Z,12.60
2022-10-28T07:46:25.431Z,12.60
2022-10-28T07:48:52.508Z,12.70
2022-10-28T07:51:19.551Z,12.70
2022-10-28T07:53:46.438Z,12.70
2022-10-28T07:56:13.846Z,12.70
2022-10-28T07:58:42.308Z,12.80
2022-10-28T08:01:11.544Z,12.80
2022-10-28T08:03:39.342Z,12.80
2022-10-28T08:06:12.527Z,12.90
2022-10-28T08:08:40.242Z,13.00
2022-10-28T08:11:15.947Z,13.00
2022-10-28T08:13:43.394Z,13.10
2022-10-28T08:16:10.642Z,13.10
2022-10-28T08:18:38.860Z,13.20
2022-10-28T08:21:08.036Z,13.30
2022-10-28T08:23:35.862Z,13.40
2022-10-28T08:26:03.087Z,13.50
2022-10-28T08:28:30.113Z,13.60
2022-10-28T08:31:09.196Z,13.70
2022-10-28T08:33:45.271Z,13.80
2022-10-28T08:36:14.338Z,13.90
2022-10-28T08:38:45.820Z,14.00
2022-10-28T08:41:36.216Z,14.10
2022-10-28T08:44:32.207Z,14.20
2022-10-28T08:47:19.403Z,14.30
2022-10-28T08:49:51.683Z,14.30
2022-10-28T08:52:32.079Z,14.40
2022-10-28T08:55:06.910Z,14.50
2022-10-28T08:57:57.835Z,14.70
2022-10-28T09:00:28.224Z,14.80
2022-10-28T09:03:03.963Z,15.00
2022-10-28T09:05:31.064Z,15.10
2022-10-28T09:07:58.922Z,15.20
2022-10-28T09:10:55.622Z,15.30
2022-10-28T09:13:41.205Z,15.50
2022-10-28T09:16:35.425Z,15.70
2022-10-28T09:19:36.449Z,15.80
2022-10-28T09:22:19.923Z,16.00
2022-10-28T09:24:49.245Z,16.10
2022-10-28T09:27:36.811Z,16.20
2022-10-28T09:30:41.430Z,16.40
2022-10-28T09:33:35.884Z,16.50
2022-10-28T09:36:10.407Z,16.70
2022-10-28T09:38:38.052Z,16.80
2022-10-28T09:41:13.139Z,16.80
2022-10-28T09:43:59.446Z,17.00
2022-10-28T09:46:33.232Z,17.10
2022-10-28T09:49:09.919Z,17.30
2022-10-28T09:52:05.857Z,17.40
2022-10-28T09:54:39.538Z,17.50
2022-10-28T09:57:06.802Z,17.50
2022-10-28T09:59:34.851Z,17.60
2022-10-28T10:02:04.341Z,17.70
2022-10-28T10:04:31.553Z,17.80
2022-10-28T10:07:04.310Z,17.90
2022-10-28T10:09:33.330Z,18.00
2022-10-28T10:12:08.900Z,18.00
2022-10-28T10:14:59.061Z,18.00
2022-10-28T10:17:39.305Z,18.10
2022-10-28T10:20:34.921Z,18.10
2022-10-28T10:23:01.872Z,18.20
2022-10-28T10:25:31.162Z,18.10
2022-10-28T10:28:05.526Z,18.20
2022-10-28T10:30:45.339Z,18.10
2022-10-28T10:33:39.749Z,18.20
2022-10-28T10:36:09.774Z,18.20
2022-10-28T10:38:37.916Z,18.30
2022-10-28T10:41:05.320Z,18.30
2022-10-28T10:43:34.416Z,18.30
2022-10-28T10:46:12.751Z,18.40
2022-10-28T10:48:39.854Z,18.40
2022-10-28T10:51:26.176Z,18.40
2022-10-28T10:53:57.809Z,18.40
2022-10-28T10:56:33.320Z,18.50
2022-10-28T10:59:04.416Z,18.50
2022-10-28T11:01:38.457Z,18.60
2022-10-28T11:04:07.708Z,18.60
2022-10-28T11:06:38.867Z,18.60
2022-10-28T11:09:18.106Z,18.70
2022-10-28T11:11:47.497Z,18.80
2022-10-28T11:14:14.493Z,18.80
2022-10-28T11:16:59.498Z,18.90
2022-10-28T11:19:37.700Z,19.00
2022-10-28T11:22:10.480Z,19.10
2022-10-28T11:24:43.262Z,19.10
2022-10-28T11:27:16.128Z,19.30
2022-10-28T11:29:44.588Z,19.40
2022-10-28T11:32:26.320Z,19.60
2022-10-28T11:35:13.765Z,19.70
2022-10-28T11:37:56.952Z,19.80
2022-10-28T11:41:02.749Z,19.90
2022-10-28T11:43:55.728Z,20.00
2022-10-28T11:46:30.402Z,20.10
2022-10-28T11:49:10.169Z,20.10
2022-10-28T11:51:46.440Z,20.20
2022-10-28T11:54:31.811Z,20.30
2022-10-28T11:57:14.900Z,20.40
2022-10-28T11:59:57.098Z,20.50
2022-10-28T12:03:09.177Z,20.50
2022-10-28T12:05:55.092Z,20.60
2022-10-28T12:08:29.971Z,20.70
2022-10-28T12:11:08.063Z,20.70
2022-10-28T12:13:48.787Z,20.70
2022-10-28T12:16:40.151Z,20.80
2022-10-28T12:19:17.229Z,20.80
2022-10-28T12:22:18.052Z,20.80
2022-10-28T12:24:47.081Z,20.80
2022-10-28T12:27:36.630Z,20.90
2022-10-28T12:30:16.412Z,21.00
2022-10-28T12:32:45.896Z,21.00
2022-10-28T12:35:25.250Z,21.00
2022-10-28T12:38:01.117Z,21.00
2022-10-28T12:40:53.205Z,21.10
2022-10-28T12:43:41.876Z,21.20
2022-10-28T12:46:22.954Z,21.20
2022-10-28T12:48:58.270Z,21.30
2022-10-28T12:51:40.787Z,21.30
2022-10-28T12:54:51.218Z,21.30
2022-10-28T12:57:27.207Z,21.40
2022-10-28T13:00:03.081Z,21.40
2022-10-28T13:02:43.430Z,21.40
2022-10-28T13:05:26.260Z,21.40
2022-10-28T13:08:15.505Z,21.40
2022-10-28T13:10:59.909Z,21.50
2022-10-28T13:13:46.984Z,21.50
2022-10-28T13:17:01.080Z,21.50
2022-10-28T13:20:06.471Z,21.50
2022-10-28T13:22:40.695Z,21.40
2022-10-28T13:25:37.952Z,21.40
2022-10-28T13:28:05.630Z,21.30
2022-10-28T13:30:35.371Z,21.30
2022-10-28T13:33:09.862Z,21.30
2022-10-28T13:35:37.478Z,21.30
2022-10-28T13:38:11.133Z,21.30
2022-10-28T13:40:40.999Z,21.20
2022-10-28T13:43:20.185Z,21.20
2022-10-28T13:45:55.259Z,21.20
2022-10-28T13:48:31.288Z,21.20
2022-10-28T13:51:10.450Z,21.10
2022-10-28T13:53:39.140Z,21.10
2022-10-28T13:56:27.485Z,21.00
2022-10-28T13:59:14.757Z,21.00
2022-10-28T14:01:41.886Z,21.00
2022-10-28T14:04:29.441Z,20.90
2022-10-28T14:07:11.084Z,21.00
2022-10-28T14:09:41.258Z,20.90
2022-10-28T14:12:19.462Z,20.90
2022-10-28T14:15:17.596Z,20.90
2022-10-28T14:18:15.740Z,20.90
2022-10-28T14:21:01.157Z,20.80
2022-10-28T14:23:31.196Z,20.80
2022-10-28T14:26:04.860Z,20.70
2022-10-28T14:28:32.187Z,20.70
2022-10-28T14:31:25.664Z,20.70
2022-10-28T14:33:55.774Z,20.70
2022-10-28T14:37:03.672Z,20.70
2022-10-28T14:39:36.579Z,20.70
2022-10-28T14:42:18.644Z,20.60
2022-10-28T14:45:28.019Z,20.60
2022-10-28T14:48:17.823Z,20.60
2022-10-28T14:50:47.829Z,20.50
2022-10-28T14:53:19.049Z,20.50
2022-10-28T14:55:50.200Z,20.40
2022-10-28T14:58:25.221Z,20.40
2022-10-28T15:01:12.633Z,20.30
2022-10-28T15:04:03.033Z,20.30
2022-10-28T15:06:39.378Z,20.20
2022-10-28T15:09:25.207Z,20.20
2022-10-28T15:12:00.754Z,20.20
2022-10-28T15:14:30.974Z,20.10
2022-10-28T15:16:58.542Z,20.10
2022-10-28T15:19:28.071Z,20.00
2022-10-28T15:22:14.957Z,20.00
2022-10-28T15:24:44.789Z,20.00
2022-10-28T15:27:22.513Z,19.90
2022-10-28T15:29:50.428Z,19.90
2022-10-28T15:32:20.577Z,19.80
2022-10-28T15:34:48.831Z,19.80
2022-10-28T15:37:21.656Z,19.70
2022-10-28T15:39:58.642Z,19.70
2022-10-28T15:42:45.590Z,19.70
2022-10-28T15:45:23.204Z,19.60
2022-10-28T15:47:50.608Z,19.60
2022-10-28T15:50:17.537Z,19.50
2022-10-28T15:52:48.163Z,19.50
2022-10-28T15:55:41.045Z,19.50
2022-10-28T15:58:19.292Z,19.50
2022-10-28T16:00:57.634Z,19.40
2022-10-28T16:03:41.814Z,19.30
2022-10-28T16:06:36.974Z,19.20
2022-10-28T16:09:14.331Z,19.10
2022-10-28T16:11:46.775Z,19.10
2022-10-28T16:14:34.068Z,19.10
2022-10-28T16:17:17.259Z,19.10
2022-10-28T16:20:15.438Z,19.10
2022-10-28T16:22:45.639Z,19.00
2022-10-28T16:25:15.280Z,18.90
2022-10-28T16:27:45.634Z,18.90
2022-10-28T16:30:16.655Z,18.90
2022-10-28T16:33:05.969Z,18.90
2022-10-28T16:35:36.089Z,18.90
2022-10-28T16:38:04.374Z,18.80
2022-10-28T16:43:23.845Z,18.70
2022-10-28T16:45:52.653Z,18.60
2022-10-28T16:48:20.685Z,18.50
2022-10-28T16:51:03.168Z,18.50
2022-10-28T16:53:34.698Z,18.40
2022-10-28T16:56:01.926Z,18.30
2022-10-28T16:58:29.608Z,18.30
2022-10-28T17:00:57.174Z,18.30
2022-10-28T17:03:24.312Z,18.30
2022-10-28T17:05:53.349Z,18.30
2022-10-28T17:08:42.258Z,18.20
2022-10-28T17:11:14.582Z,18.20
2022-10-28T17:13:41.970Z,18.10
2022-10-28T17:16:08.878Z,18.00
2022-10-28T17:18:35.848Z,18.00
2022-10-28T17:21:05.605Z,17.90
2022-10-28T17:23:34.882Z,17.80
2022-10-28T17:26:12.982Z,17.80
2022-10-28T17:28:40.066Z,17.80
2022-10-28T17:31:08.859Z,17.70
2022-10-28T17:33:35.954Z,17.70
2022-10-28T17:36:08.166Z,17.70
2022-10-28T17:38:38.474Z,17.60
2022-10-28T17:41:13.037Z,17.60
2022-10-28T17:43:49.317Z,17.60
2022-10-28T17:46:16.666Z,17.60
2022-10-28T17:48:47.464Z,17.60
2022-10-28T17:51:14.699Z,17.60
2022-10-28T17:53:41.846Z,17.60
2022-10-28T17:56:13.432Z,17.50
2022-10-28T17:58:40.443Z,17.50
2022-10-28T18:01:08.953Z,17.50
2022-10-28T18:03:41.221Z,17.50
2022-10-28T18:06:10.921Z,17.50
2022-10-28T18:11:23.946Z,17.50
2022-10-28T18:13:52.971Z,17.50
2022-10-28T18:16:25.344Z,17.50
2022-10-28T18:18:55.889Z,17.50
2022-10-28T18:21:24.724Z,17.50
2022-10-28T18:24:03.438Z,17.40
2022-10-28T18:26:34.325Z,17.40
2022-10-28T18:29:04.068Z,17.30
2022-10-28T18:31:33.123Z,17.30
2022-10-28T18:34:01.003Z,17.20
2022-10-28T18:36:31.031Z,17.10
2022-10-28T18:39:02.969Z,17.00
2022-10-28T18:41:34.597Z,16.90
2022-10-28T18:44:05.690Z,16.90
2022-10-28T18:46:37.999Z,16.80
2022-10-28T18:49:05.607Z,16.70
2022-10-28T18:51:39.629Z,16.70
2022-10-28T18:54:06.871Z,16.60
2022-10-28T18:56:34.548Z,16.60
2022-10-28T18:59:09.686Z,16.50
2022-10-28T19:01:37.599Z,16.50
2022-10-28T19:04:05.473Z,16.50
2022-10-28T19:06:33.528Z,16.50
2022-10-28T19:09:03.248Z,16.50
2022-10-28T19:11:31.665Z,16.40
2022-10-28T19:14:05.845Z,16.40
2022-10-28T19:16:34.392Z,16.40
2022-10-28T19:19:03.874Z,16.30
2022-10-28T19:21:33.587Z,16.30
2022-10-28T19:24:06.701Z,16.20
2022-10-28T19:26:36.753Z,16.20
2022-10-28T19:29:07.062Z,16.20
2022-10-28T19:31:37.193Z,16.20
2022-10-28T19:34:07.693Z,16.30
2022-10-28T19:36:34.951Z,16.40
2022-10-28T19:39:11.601Z,16.50
2022-10-28T19:41:38.719Z,16.60
2022-10-28T19:44:06.103Z,16.60
2022-10-28T19:46:36.421Z,16.50
2022-10-28T19:49:08.974Z,16.50
2022-10-28T19:51:44.854Z,16.60
2022-10-28T19:54:13.279Z,16.60
2022-10-28T19:56:42.750Z,16.60
2022-10-28T19:59:09.875Z,16.60
2022-10-28T20:01:38.735Z,16.60
2022-10-28T20:04:06.710Z,16.60
2022-10-28T20:06:36.335Z,16.60
2022-10-28T20:09:04.306Z,16.70
2022-10-28T20:11:48.244Z,16.70
2022-10-28T20:14:15.413Z,16.60
2022-10-28T20:16:43.636Z,16.60
2022-10-28T20:19:10.622Z,16.50
2022-10-28T20:21:38.207Z,16.50
2022-10-28T20:24:06.947Z,16.40
2022-10-28T20:26:35.638Z,16.40
2022-10-28T20:29:03.253Z,16.40
2022-10-28T20:31:32.085Z,16.30
2022-10-28T20:34:03.982Z,16.30
2022-10-28T20:36:33.558Z,16.20
2022-10-28T20:39:23.666Z,16.20
2022-10-28T20:41:51.340Z,16.10
2022-10-28T20:44:18.661Z,16.10
2022-10-28T20:46:48.238Z,16.10
2022-10-28T20:49:15.593Z,16.10
2022-10-28T20:51:45.224Z,16.00
2022-10-28T20:54:12.220Z,16.00
2022-10-28T20:56:40.509Z,16.00
2022-10-28T20:59:07.765Z,16.00
2022-10-28T21:01:39.872Z,16.00
2022-10-28T21:04:09.508Z,16.00
2022-10-28T21:06:37.980Z,16.00
2022-10-28T21:09:05.352Z,16.00
2022-10-28T21:11:32.647Z,16.00
2022-10-28T21:14:01.050Z,16.10
2022-10-28T21:16:29.742Z,16.10
2022-10-28T21:18:57.113Z,16.00
2022-10-28T21:21:25.069Z,16.00
2022-10-28T21:23:52.053Z,15.90
2022-10-28T21:26:19.258Z,15.80
2022-10-28T21:28:50.388Z,15.80
2022-10-28T21:31:18.390Z,15.80
2022-10-28T21:36:17.493Z,15.70
2022-10-28T21:38:45.081Z,15.60
2022-10-28T21:41:19.833Z,15.70
2022-10-28T21:43:49.469Z,15.60
2022-10-28T21:46:20.932Z,15.60
2022-10-28T21:48:50.930Z,15.60
2022-10-28T21:51:29.998Z,15.50
2022-10-28T21:54:36.669Z,15.40
2022-10-28T21:57:03.824Z,15.40
2022-10-28T21:59:30.894Z,15.30
2022-10-28T22:01:57.873Z,15.30
2022-10-28T22:04:25.247Z,15.30
2022-10-28T22:06:52.343Z,15.30
2022-10-28T22:09:19.219Z,15.30
2022-10-28T22:11:48.715Z,15.30
2022-10-28T22:14:16.362Z,15.40
2022-10-28T22:16:43.649Z,15.40
2022-10-28T22:19:17.469Z,15.40
2022-10-28T22:21:44.685Z,15.40
2022-10-28T22:24:13.951Z,15.40
2022-10-28T22:26:40.932Z,15.40
2022-10-28T22:29:07.866Z,15.40
2022-10-28T22:31:34.856Z,15.40
2022-10-28T22:34:02.060Z,15.40
2022-10-28T22:36:30.433Z,15.40
2022-10-28T22:38:57.646Z,15.40
2022-10-28T22:41:28.955Z,15.50
2022-10-28T22:43:58.174Z,15.40
2022-10-28T22:46:28.356Z,15.40
2022-10-28T22:48:55.496Z,15.50
2022-10-28T22:51:23.366Z,15.40
2022-10-28T22:53:50.533Z,15.40
2022-10-28T22:56:22.832Z,15.30
2022-10-28T22:58:54.528Z,15.30
2022-10-28T23:01:21.938Z,15.30
2022-10-28T23:03:51.021Z,15.20
2022-10-28T23:06:26.603Z,15.20
2022-10-28T23:08:54.515Z,15.20
2022-10-28T23:11:22.884Z,15.10
2022-10-28T23:13:54.202Z,15.10
2022-10-28T23:16:22.792Z,15.10
2022-10-28T23:18:50.036Z,15.00
2022-10-28T23:21:21.944Z,15.00
2022-10-28T23:23:57.924Z,15.00
2022-10-28T23:26:33.987Z,14.90
2022-10-28T23:29:01.191Z,14.80
2022-10-28T23:31:28.927Z,14.80
2022-10-28T23:33:56.633Z,14.80
2022-10-28T23:36:23.958Z,14.70
2022-10-28T23:38:51.155Z,14.70
2022-10-28T23:41:22.133Z,14.60
2022-10-28T23:43:52.720Z,14.60
2022-10-28T23:46:20.651Z,14.50
2022-10-28T23:48:47.925Z,14.50
2022-10-28T23:51:15.298Z,14.50
2022-10-28T23:53:45.632Z,14.40
2022-10-28T23:56:23.204Z,14.40
2022-10-28T23:58:50.456Z,14.40
